MKU269 PHNL-PHOG
Flight info
| Callsign | MKU269 |
|---|---|
| Flight time | 0h 24m |
| Altitude | 15000 |
| Route | PALAY3 LNY CAMPS4 |
| Aircraft | DH8D/M-SDE2E3FGRY/H |
Departure
| Time | 2026-04-21 21:53 |
|---|---|
| Airport | Daniel K. Inouye International Airport (PHNL) |
Arrival
| Time | 2026-04-21 22:17 |
|---|---|
| Airport | Kahului International Airport (PHOG) |
| Time | Latitude | Longitude | Altitude | Speed | Heading |
|---|---|---|---|---|---|
| 2026-04-21 21:21 | 21.33313 | -157.92467 | 29 ft | 0 kts | 98° |
| 2026-04-21 21:41 | 21.33313 | -157.92465 | 29 ft | 0 kts | 98° |
| 2026-04-21 21:42 | 21.33313 | -157.92467 | 29 ft | 1 kts | 98° |
| 2026-04-21 21:42 | 21.33315 | -157.92482 | 29 ft | 2 kts | 99° |
| 2026-04-21 21:42 | 21.33317 | -157.92499 | 29 ft | 2 kts | 99° |
| 2026-04-21 21:43 | 21.33320 | -157.92514 | 29 ft | 2 kts | 99° |
| 2026-04-21 21:43 | 21.33322 | -157.92529 | 29 ft | 2 kts | 99° |
| 2026-04-21 21:43 | 21.33325 | -157.92545 | 29 ft | 2 kts | 109° |
| 2026-04-21 21:43 | 21.33333 | -157.92558 | 29 ft | 2 kts | 146° |
| 2026-04-21 21:44 | 21.33347 | -157.92563 | 29 ft | 2 kts | 179° |
| 2026-04-21 21:44 | 21.33354 | -157.92563 | 29 ft | 0 kts | 188° |
| 2026-04-21 21:48 | 21.33353 | -157.92563 | 29 ft | 0 kts | 188° |
| 2026-04-21 21:48 | 21.33326 | -157.92567 | 29 ft | 7 kts | 188° |
| 2026-04-21 21:48 | 21.33278 | -157.92574 | 29 ft | 6 kts | 186° |
| 2026-04-21 21:49 | 21.33238 | -157.92578 | 29 ft | 5 kts | 186° |
| 2026-04-21 21:49 | 21.33206 | -157.92581 | 29 ft | 4 kts | 186° |
| 2026-04-21 21:49 | 21.33164 | -157.92593 | 29 ft | 7 kts | 204° |
| 2026-04-21 21:49 | 21.33128 | -157.92631 | 29 ft | 7 kts | 236° |
| 2026-04-21 21:50 | 21.33093 | -157.92668 | 29 ft | 7 kts | 220° |
| 2026-04-21 21:50 | 21.33056 | -157.92705 | 29 ft | 10 kts | 230° |
| 2026-04-21 21:50 | 21.32984 | -157.92787 | 29 ft | 14 kts | 225° |
| 2026-04-21 21:50 | 21.32918 | -157.92857 | 29 ft | 11 kts | 224° |
| 2026-04-21 21:51 | 21.32858 | -157.92894 | 29 ft | 8 kts | 181° |
| 2026-04-21 21:51 | 21.32799 | -157.92894 | 29 ft | 8 kts | 179° |
| 2026-04-21 21:51 | 21.32748 | -157.92894 | 29 ft | 6 kts | 179° |
| 2026-04-21 21:51 | 21.32708 | -157.92892 | 29 ft | 5 kts | 179° |
| 2026-04-21 21:52 | 21.32674 | -157.92892 | 29 ft | 5 kts | 180° |
| 2026-04-21 21:52 | 21.32621 | -157.92892 | 29 ft | 7 kts | 180° |
| 2026-04-21 21:52 | 21.32560 | -157.92892 | 29 ft | 9 kts | 180° |
| 2026-04-21 21:52 | 21.32524 | -157.92825 | 29 ft | 24 kts | 90° |
| 2026-04-21 21:53 | 21.32527 | -157.92268 | 29 ft | 121 kts | 89° |
| 2026-04-21 21:53 | 21.32489 | -157.91211 | 233 ft | 159 kts | 101° |
| 2026-04-21 21:53 | 21.31894 | -157.90164 | 701 ft | 177 kts | 137° |
| 2026-04-21 21:53 | 21.30941 | -157.89304 | 1334 ft | 188 kts | 142° |
| 2026-04-21 21:54 | 21.29924 | -157.88425 | 1945 ft | 201 kts | 140° |
| 2026-04-21 21:54 | 21.28776 | -157.87415 | 2380 ft | 219 kts | 140° |
| 2026-04-21 21:54 | 21.27575 | -157.86365 | 3000 ft | 225 kts | 140° |
| 2026-04-21 21:54 | 21.27013 | -157.85872 | 3298 ft | 228 kts | 140° |
| 2026-04-21 21:55 | 21.25833 | -157.84839 | 3951 ft | 229 kts | 141° |
| 2026-04-21 21:55 | 21.24620 | -157.83777 | 4532 ft | 231 kts | 140° |
| 2026-04-21 21:55 | 21.23362 | -157.82680 | 5168 ft | 234 kts | 140° |
| 2026-04-21 21:55 | 21.22102 | -157.81589 | 5839 ft | 240 kts | 140° |
| 2026-04-21 21:56 | 21.21011 | -157.80266 | 6557 ft | 239 kts | 118° |
| 2026-04-21 21:56 | 21.20268 | -157.78661 | 7319 ft | 242 kts | 115° |
| 2026-04-21 21:56 | 21.19550 | -157.77063 | 7993 ft | 244 kts | 115° |
| 2026-04-21 21:56 | 21.18810 | -157.75412 | 8661 ft | 249 kts | 115° |
| 2026-04-21 21:57 | 21.18055 | -157.73729 | 9313 ft | 252 kts | 115° |
| 2026-04-21 21:57 | 21.17312 | -157.72080 | 9939 ft | 257 kts | 115° |
| 2026-04-21 21:57 | 21.16528 | -157.70334 | 10597 ft | 259 kts | 115° |
| 2026-04-21 21:57 | 21.15758 | -157.68622 | 11263 ft | 260 kts | 115° |
| 2026-04-21 21:58 | 21.14980 | -157.66895 | 11845 ft | 266 kts | 115° |
| 2026-04-21 21:58 | 21.14181 | -157.65124 | 12453 ft | 270 kts | 115° |
| 2026-04-21 21:58 | 21.13351 | -157.63284 | 13054 ft | 274 kts | 115° |
| 2026-04-21 21:58 | 21.12527 | -157.61458 | 13703 ft | 279 kts | 115° |
| 2026-04-21 21:59 | 21.11679 | -157.59580 | 14364 ft | 281 kts | 114° |
| 2026-04-21 21:59 | 21.10827 | -157.57695 | 14754 ft | 289 kts | 114° |
| 2026-04-21 21:59 | 21.09851 | -157.55769 | 14892 ft | 302 kts | 119° |
| 2026-04-21 21:59 | 21.08737 | -157.53793 | 14930 ft | 313 kts | 120° |
| 2026-04-21 22:00 | 21.07591 | -157.51773 | 14941 ft | 322 kts | 120° |
| 2026-04-21 22:00 | 21.06418 | -157.49705 | 14939 ft | 327 kts | 120° |
| 2026-04-21 22:00 | 21.05248 | -157.47641 | 14939 ft | 330 kts | 120° |
| 2026-04-21 22:00 | 21.04035 | -157.45502 | 14945 ft | 335 kts | 120° |
| 2026-04-21 22:01 | 21.02889 | -157.43478 | 14941 ft | 336 kts | 120° |
| 2026-04-21 22:01 | 21.01673 | -157.41327 | 14941 ft | 337 kts | 120° |
| 2026-04-21 22:01 | 21.00462 | -157.39189 | 14941 ft | 340 kts | 120° |
| 2026-04-21 22:01 | 20.99266 | -157.37082 | 14933 ft | 341 kts | 120° |
| 2026-04-21 22:02 | 20.98046 | -157.34927 | 14946 ft | 344 kts | 120° |
| 2026-04-21 22:02 | 20.96796 | -157.32722 | 14941 ft | 344 kts | 120° |
| 2026-04-21 22:02 | 20.95571 | -157.30562 | 14950 ft | 346 kts | 120° |
| 2026-04-21 22:02 | 20.94311 | -157.28340 | 14960 ft | 348 kts | 120° |
| 2026-04-21 22:03 | 20.93108 | -157.26221 | 14944 ft | 348 kts | 120° |
| 2026-04-21 22:03 | 20.91875 | -157.24051 | 14943 ft | 346 kts | 120° |
| 2026-04-21 22:03 | 20.90628 | -157.21855 | 14954 ft | 347 kts | 120° |
| 2026-04-21 22:03 | 20.89628 | -157.20096 | 14958 ft | 347 kts | 120° |
| 2026-04-21 22:04 | 20.88693 | -157.18449 | 14950 ft | 343 kts | 120° |
| 2026-04-21 22:04 | 20.87079 | -157.15611 | 14666 ft | 350 kts | 120° |
| 2026-04-21 22:04 | 20.85824 | -157.13403 | 14314 ft | 356 kts | 120° |
| 2026-04-21 22:04 | 20.84580 | -157.11214 | 13902 ft | 347 kts | 120° |
| 2026-04-21 22:05 | 20.83338 | -157.09026 | 13490 ft | 342 kts | 120° |
| 2026-04-21 22:05 | 20.82154 | -157.06943 | 13126 ft | 332 kts | 121° |
| 2026-04-21 22:05 | 20.80967 | -157.04854 | 12749 ft | 327 kts | 121° |
| 2026-04-21 22:05 | 20.79785 | -157.02777 | 12371 ft | 323 kts | 121° |
| 2026-04-21 22:06 | 20.78633 | -157.00754 | 11999 ft | 316 kts | 121° |
| 2026-04-21 22:06 | 20.77489 | -156.98744 | 11628 ft | 315 kts | 121° |
| 2026-04-21 22:06 | 20.76414 | -156.96710 | 10874 ft | 317 kts | 113° |
| 2026-04-21 22:06 | 20.75730 | -156.94513 | 10140 ft | 309 kts | 105° |
| 2026-04-21 22:07 | 20.75145 | -156.92302 | 9395 ft | 307 kts | 104° |
| 2026-04-21 22:07 | 20.74584 | -156.90173 | 8675 ft | 301 kts | 104° |
| 2026-04-21 22:07 | 20.74020 | -156.88040 | 7990 ft | 297 kts | 104° |
| 2026-04-21 22:07 | 20.73471 | -156.85974 | 7580 ft | 281 kts | 104° |
| 2026-04-21 22:08 | 20.72947 | -156.84015 | 7196 ft | 268 kts | 104° |
| 2026-04-21 22:08 | 20.72441 | -156.82121 | 6670 ft | 264 kts | 104° |
| 2026-04-21 22:08 | 20.71952 | -156.80298 | 6283 ft | 251 kts | 104° |
| 2026-04-21 22:08 | 20.71476 | -156.78525 | 5968 ft | 242 kts | 104° |
| 2026-04-21 22:09 | 20.71014 | -156.76817 | 5686 ft | 240 kts | 104° |
| 2026-04-21 22:09 | 20.70564 | -156.75154 | 5402 ft | 236 kts | 104° |
| 2026-04-21 22:09 | 20.70110 | -156.73477 | 5125 ft | 235 kts | 105° |
| 2026-04-21 22:09 | 20.69658 | -156.71811 | 4843 ft | 232 kts | 104° |
| 2026-04-21 22:10 | 20.69211 | -156.70165 | 4570 ft | 230 kts | 104° |
| 2026-04-21 22:10 | 20.68763 | -156.68514 | 4294 ft | 229 kts | 105° |
| 2026-04-21 22:10 | 20.68327 | -156.66907 | 4029 ft | 227 kts | 105° |
| 2026-04-21 22:10 | 20.67884 | -156.65273 | 3763 ft | 226 kts | 104° |
| 2026-04-21 22:11 | 20.67454 | -156.63681 | 3496 ft | 223 kts | 105° |
| 2026-04-21 22:11 | 20.67023 | -156.62085 | 3231 ft | 225 kts | 104° |
| 2026-04-21 22:11 | 20.66792 | -156.60465 | 3037 ft | 220 kts | 80° |
| 2026-04-21 22:11 | 20.67529 | -156.59111 | 2983 ft | 213 kts | 38° |
| 2026-04-21 22:12 | 20.68823 | -156.58325 | 2971 ft | 214 kts | 27° |
| 2026-04-21 22:12 | 20.70117 | -156.57535 | 2955 ft | 215 kts | 33° |
| 2026-04-21 22:12 | 20.71345 | -156.56653 | 2952 ft | 215 kts | 34° |
| 2026-04-21 22:12 | 20.72587 | -156.55745 | 2953 ft | 215 kts | 34° |
| 2026-04-21 22:13 | 20.73819 | -156.54842 | 2953 ft | 212 kts | 34° |
| 2026-04-21 22:13 | 20.75034 | -156.53944 | 2952 ft | 213 kts | 34° |
| 2026-04-21 22:13 | 20.76251 | -156.53041 | 2947 ft | 211 kts | 35° |
| 2026-04-21 22:13 | 20.77447 | -156.52153 | 2786 ft | 207 kts | 35° |
| 2026-04-21 22:14 | 20.78585 | -156.51312 | 2425 ft | 190 kts | 34° |
| 2026-04-21 22:14 | 20.79595 | -156.50569 | 2138 ft | 175 kts | 34° |
| 2026-04-21 22:14 | 20.80603 | -156.49811 | 1946 ft | 178 kts | 35° |
| 2026-04-21 22:14 | 20.81605 | -156.49060 | 1712 ft | 166 kts | 34° |
| 2026-04-21 22:15 | 20.82503 | -156.48404 | 1528 ft | 152 kts | 34° |
| 2026-04-21 22:15 | 20.83383 | -156.47740 | 1386 ft | 155 kts | 35° |
| 2026-04-21 22:15 | 20.84247 | -156.47096 | 1157 ft | 147 kts | 34° |
| 2026-04-21 22:15 | 20.85069 | -156.46487 | 972 ft | 141 kts | 34° |
| 2026-04-21 22:16 | 20.85861 | -156.45897 | 795 ft | 136 kts | 34° |
| 2026-04-21 22:16 | 20.86627 | -156.45326 | 636 ft | 136 kts | 33° |
| 2026-04-21 22:16 | 20.87412 | -156.44743 | 464 ft | 137 kts | 33° |
| 2026-04-21 22:16 | 20.88201 | -156.44161 | 290 ft | 136 kts | 33° |
| 2026-04-21 22:17 | 20.88987 | -156.43578 | 99 ft | 137 kts | 33° |
| 2026-04-21 22:17 | 20.89675 | -156.43068 | 65 ft | 95 kts | 35° |
| 2026-04-21 22:17 | 20.90040 | -156.42795 | 65 ft | 39 kts | 33° |
| 2026-04-21 22:17 | 20.90204 | -156.42679 | 65 ft | 25 kts | 33° |
| 2026-04-21 22:18 | 20.90370 | -156.42555 | 65 ft | 23 kts | 34° |
| 2026-04-21 22:18 | 20.90485 | -156.42500 | 65 ft | 11 kts | 335° |
| 2026-04-21 22:18 | 20.90485 | -156.42590 | 65 ft | 14 kts | 238° |
| 2026-04-21 22:18 | 20.90370 | -156.42705 | 65 ft | 25 kts | 215° |
| 2026-04-21 22:19 | 20.90237 | -156.42807 | 65 ft | 18 kts | 214° |
| 2026-04-21 22:19 | 20.90149 | -156.42874 | 65 ft | 15 kts | 215° |
| 2026-04-21 22:19 | 20.90063 | -156.42938 | 65 ft | 14 kts | 214° |
| 2026-04-21 22:19 | 20.89980 | -156.43001 | 65 ft | 14 kts | 216° |
| 2026-04-21 22:20 | 20.89901 | -156.43059 | 65 ft | 13 kts | 214° |
| 2026-04-21 22:20 | 20.89823 | -156.43117 | 64 ft | 13 kts | 214° |
| 2026-04-21 22:20 | 20.89748 | -156.43172 | 64 ft | 13 kts | 214° |
| 2026-04-21 22:20 | 20.89673 | -156.43228 | 64 ft | 13 kts | 215° |
| 2026-04-21 22:21 | 20.89599 | -156.43283 | 64 ft | 13 kts | 214° |
| 2026-04-21 22:21 | 20.89524 | -156.43339 | 64 ft | 12 kts | 215° |
| 2026-04-21 22:21 | 20.89433 | -156.43411 | 65 ft | 17 kts | 217° |
| 2026-04-21 22:21 | 20.89341 | -156.43484 | 65 ft | 15 kts | 215° |
| 2026-04-21 22:22 | 20.89255 | -156.43552 | 65 ft | 14 kts | 228° |
| 2026-04-21 22:22 | 20.89253 | -156.43628 | 64 ft | 9 kts | 304° |
| 2026-04-21 22:22 | 20.89283 | -156.43668 | 64 ft | 5 kts | 306° |
| 2026-04-21 22:22 | 20.89290 | -156.43680 | 64 ft | 0 kts | 306° |